Racecast

Jeff Cho

Bella Vista (CA) · 12 · CVCCA D2SJS D2 · Compare head to head

Athlete rating 114.4 2016 TF season
Best race 114.4 TF
Races 95
Seasons 4 2013 — 2016

RankedNation #37085·CA #4893·CA D2 #2055·SJS #547·SJS D2 #160·CVC #76·Team #28 ?

Speed rating — all races

Cross Country

XC speed rating

2015 XC 103.3

Bella Vista (CA) · Grade 12

Date Meet Event Result Place Rating Difficulty PR/SR Flags
2015-11-07 Calaveras County Fairgrounds 4828m 20:08 85th · 12th on team 105.2 +0.065 ★PR ★CR SR CSR
2015-10-30 Willow Hills Reservoir Course 5000m 20:31.4 62nd · 17th on team 105.0 +0.045 CSR
2015-10-17 Willow Hills Reservoir Course 3400m 13:11.2 56th · 9th on team 105.9 +0.043 SR CSR
2015-10-10 Granite Park 3540m 13:56 13th · 9th on team 101.8 -0.001 ★PR ★CR SR CSR
2015-09-30 Maidu Park 5000m 18:43.8 61st · 16th on team 107.5 -0.007 ★PR ★CR SR CSR RSR
2015-09-26 Elkhorn Golf Course 3218m 11:56 39th · 7th on team 104.7 -0.019 ★PR ★CR SR CSR RSR
2015-09-12 Hidden Valley Park 3218m 13:19.6 44th · 3rd on team 101.0 +0.075 ★CR CSR
2015-09-02 Del Oro HS 4000m 16:15 101st · 18th on team 102.4 +0.031 ★PR ★CR SR CSR
2015-08-28 Woodland High School 3218m 12:24 15th · 12th on team 102.7 +0.024 ★CR SR CSR RSR
2015-08-21 Bella Vista High School 3218m 13:24 31st · 31st on team 96.6 +0.021 ★CR SR CSR RSR

2014 XC 103.6

Bella Vista (CA) · Grade 11

Date Meet Event Result Place Rating Difficulty PR/SR Flags
2014-10-31 Willow Hills Reservoir Course 5000m 20:20.7 68th · 16th on team 105.4 +0.045 ★CR CSR
2014-10-18 Willow Hills Reservoir Course 3400m 13:08.1 44th · 8th on team 107.5 +0.043 ★PR ★CR R SR CSR RSR
2014-10-11 Crystal Springs 4747m 20:00 65th · 8th on team 103.1 +0.063 ★PR ★CR SR CSR
2014-10-08 Maidu Park 5000m 20:04.6 62nd · 13th on team 102.6 -0.007 PR CR SR CSR
2014-09-27 Elkhorn Golf Course 3218m 11:59 49th · 8th on team 103.8 -0.019 PR CR R SR CSR RSR
2014-09-17 Maidu Park 5000m 20:14.2 62nd · 14th on team 101.6 -0.007 PR CR R SR CSR RSR
2014-09-13 Nevada Union High School 4828m 21:11.8 63rd · 10th on team 101.0 +0.076 PR ★CR R SR CSR RSR

Track & Field

TF speed rating

2016 TF 114.4

Bella Vista (CA) · Grade 12

Date Meet Event Result Place Rating Difficulty PR/SR Flags
2016-05-27 CIF Sac-Joaquin Section Masters Trials and Finals 2016 400m 50.53 20th · 1st on team -0.033
2016-05-20 Sac Joaquin Section Division II-III Finals 400m 50.27 6th · 1st on team -0.036
2016-05-18 Sac-Joaquin Section Division II-III Prelims 400m 49.74 4th · 1st on team -0.036
2016-05-13 Capital Valley Conference Finals 200m 23.33 5th · 1st on team -0.012
2016-05-13 Capital Valley Conference Finals 400m 49.22 2nd · 1st on team -0.012 ★PR SR
2016-04-30 Sacramento Meet Of Champions 400m 50.1 14th · 1st on team -0.039 PR SR
2016-04-27 Capital Valley Conference Meet 3A 400m 50.86 1st · 1st on team -0.036 PR SR
2016-04-27 Capital Valley Conference Meet 3A 200m 23.3 3rd · 1st on team -0.036
2016-04-16 Bella Vista Bronco Invitational 200m 22.98 10th · 2nd on team -0.029 ★PR SR
2016-04-16 Bella Vista Bronco Invitational 100m 11.51 10th · 2nd on team -0.029 ★PR SR
2016-03-18 Bronco Roundup Distance Carnival 800m 2:11.7 36th · 8th on team 114.4 -0.036 ★PR ★R SR RSR
2016-03-16 Capital Valley Conference Meet 1A 200m 23.33 3rd · 2nd on team -0.025 PR SR
2016-03-16 Capital Valley Conference Meet 1A 400m 52.33 1st · 1st on team -0.025
2016-03-12 2nd Annual Granite Bay Sturgeon Invitational 400m 51.94 5th · 1st on team -0.027 SR
2016-03-12 2nd Annual Granite Bay Sturgeon Invitational 200m 24.16 5th · 2nd on team -0.027 SR
2016-03-05 12th Annual Sacramento State HS Track Classic 400m 53.95 12th · 1st on team -0.032 SR
2016-02-24 Bella Vista Intra-Squad 400m 56.84 1st · 1st on team -0.036 SR
2016-02-24 Bella Vista Intra-Squad 100m 11.94 4th · 4th on team -0.036 SR

2015 TF

Bella Vista (CA) · Grade 11

Date Meet Event Result Place Rating Difficulty PR/SR Flags
2015-05-20 Sac Joaquin Section Division II-III Prelims 400m 52.32 16th · 1st on team -0.036
2015-05-15 CVC Finals 400m 51.29 4th · 1st on team -0.024 PR SR
2015-05-13 CVC Trials 400m 52.53 7th · 1st on team -0.024 PR SR
2015-05-13 CVC Trials 200m 23.46 9th · 1st on team -0.024
2015-04-29 CVC Center Meet 3A 400m 53.17 6th · 1st on team -0.025 PR SR
2015-04-29 CVC Center Meet 3A 200m 23.35 4th · 1st on team -0.025 PR SR
2015-04-25 Bella Vista Bronco Invitational 200m 23.53 10th · 1st on team -0.036 PR SR
2015-04-25 Bella Vista Bronco Invitational 100m 11.76 10th · 1st on team -0.036
2015-04-11 Thunder Invitational 200m 23.68 14th · 1st on team -0.024 PR SR
2015-04-11 Thunder Invitational 100m 11.66 16th · 1st on team -0.024 PR SR
2015-04-08 CVC Center Meet 2B 400m 53.42 5th · 3rd on team -0.022 PR SR
2015-04-08 CVC Center Meet 2B 200m 23.73 6th · 1st on team -0.022 PR SR
2015-03-21 Depth Charge lj 16-06.00 -0.020
2015-03-21 Depth Charge 200m 24.04 11th · 1st on team -0.020
2015-03-21 Depth Charge 100m 11.92 15th · 1st on team -0.020
2015-03-18 CVC Center Meet 1B 200m 23.81 3rd · 1st on team -0.036
2015-03-18 CVC Center Meet 1B 100m 11.84 4th · 1st on team -0.036 PR SR
2015-03-14 Sturgeon Invitational (formerly the King Gilbert Invite) 200m 23.78 14th · 1st on team -0.027 PR SR
2015-02-28 Clarke Massey Relays lj 18-08.00 -0.031
2015-02-25 Red and Black Intrasquad lj 17-08.00 -0.036
2015-02-25 Red and Black Intrasquad 100m 12.11 3rd · 3rd on team -0.036 SR
2015-02-25 Red and Black Intrasquad 400m 56.2 3rd · 3rd on team -0.036 PR SR

2014 TF 91.7

Bella Vista (CA) · Grade 10

Date Meet Event Result Place Rating Difficulty PR/SR Flags
2014-05-16 Capital Valley Conference Finals 100m 12.52 7th · 1st on team -0.028
2014-05-10 Frosh/Soph Sac Town Races 100m 12.75 27th · 2nd on team -0.024
2014-04-30 CVC Center Meet 3 lj 18-05.00 -0.036
2014-04-30 CVC Center Meet 3 200m 24.05 1st · 1st on team -0.036 PR SR
2014-04-30 CVC Center Meet 3 100m 11.86 1st · 1st on team -0.036 PR SR
2014-04-26 Bella Vista Bronco Invitational 200m 24.62 8th · 1st on team -0.036
2014-04-26 Bella Vista Bronco Invitational 100m 12.04 10th · 1st on team -0.036
2014-04-09 CVC Center Meet 2 lj 16-05.50 -0.025
2014-04-09 CVC Center Meet 2 200m 24.49 1st · 1st on team -0.025 PR SR
2014-04-09 CVC Center Meet 2 100m 12.01 2nd · 1st on team -0.025 PR SR
2014-03-29 Thunder Invitational lj DNS -0.024
2014-03-19 CVC Center Meet 1 lj 18-04.00 -0.020
2014-03-19 CVC Center Meet 1 100m 12.15 4th · 3rd on team -0.020 PR SR
2014-03-19 CVC Center Meet 1 200m 24.67 2nd · 2nd on team -0.020 PR SR
2014-03-15 Folsom Depth Charge 100m 12.25 8th · 2nd on team -0.020 PR SR
2014-03-08 King/Gilbert Invitational 100m 12.57 19th · 2nd on team -0.027 SR
2014-03-08 King/Gilbert Invitational 200m 25.24 13th · 3rd on team -0.027 SR
2014-02-26 Bella Vista Intra-Squad 800m 2:44.62 31st · 31st on team 91.7 -0.036 SR RSR
2014-02-26 Bella Vista Intra-Squad 100m 13.07 6th · 6th on team -0.036 SR

2013 TF 92.2

Bella Vista (CA) · Grade 9

Date Meet Event Result Place Rating Difficulty PR/SR Flags
2013-05-10 CVC Finals lj 17-03.00 -0.025
2013-05-10 CVC Finals 200m 25.13 9th · 3rd on team -0.025 PR SR
2013-05-10 CVC Finals 100m 12.26 7th · 3rd on team -0.025 PR SR
2013-05-04 Frosh/Soph Sac Town Races lj 16-05.50 -0.024
2013-05-04 Frosh/Soph Sac Town Races 200m 25.67 33rd · 5th on team -0.024 PR SR
2013-05-04 Frosh/Soph Sac Town Races 100m 12.61 39th · 4th on team -0.024
2013-04-17 CVC Center Meet 3 lj 17-06.00 -0.020
2013-04-17 CVC Center Meet 3 200m 25.98 17th · 6th on team -0.020 PR SR
2013-04-17 CVC Center Meet 3 100m 12.45 9th · 4th on team -0.020
2013-04-13 Bella Vista Bronco Invitational 200m 26.14 30th · 4th on team -0.036 PR SR
2013-03-20 CVC Center Meet 2 lj 15-08.25 -0.028
2013-03-20 CVC Center Meet 2 200m 26.53 16th · 6th on team -0.028 PR SR
2013-03-20 CVC Center Meet 2 100m 12.87 11th · 4th on team -0.028
2013-03-16 Depth Charge 100m 12.39 14th · 3rd on team -0.020 PR SR
2013-03-06 CVC Center Meet 1 lj 15-05.00 -0.036
2013-03-06 CVC Center Meet 1 200m 27.42 30th · 12th on team -0.036 PR SR
2013-03-06 CVC Center Meet 1 100m 13.02 16th · 5th on team -0.036
2013-02-27 Red and Black Intrasquad Pentathlon 800m 2:42.42 17th · 17th on team 92.2 -0.036 PR R SR RSR
2013-02-27 Red and Black Intrasquad Pentathlon 100m 12.96 10th · 10th on team -0.036 PR SR